createdAt,value
2022-11-17T00:01:24.743Z,3.30
2022-11-17T00:03:52.809Z,2.55
2022-11-17T00:06:21.175Z,4.03
2022-11-17T00:08:49.346Z,4.22
2022-11-17T00:11:16.787Z,3.35
2022-11-17T00:14:03.086Z,3.47
2022-11-17T00:16:30.325Z,5.80
2022-11-17T00:19:15.923Z,4.80
2022-11-17T00:21:43.205Z,3.55
2022-11-17T00:24:10.658Z,4.03
2022-11-17T00:26:57.903Z,4.53
2022-11-17T00:29:25.547Z,4.35
2022-11-17T00:32:11.463Z,3.20
2022-11-17T00:34:38.872Z,4.05
2022-11-17T00:37:09.652Z,6.75
2022-11-17T00:39:37.103Z,4.03
2022-11-17T00:42:04.632Z,4.00
2022-11-17T00:44:32.147Z,4.28
2022-11-17T00:46:59.628Z,3.63
2022-11-17T00:49:27.145Z,5.45
2022-11-17T00:51:56.148Z,5.70
2022-11-17T00:54:25.193Z,5.68
2022-11-17T00:56:52.690Z,5.82
2022-11-17T00:59:20.015Z,3.70
2022-11-17T01:01:47.597Z,5.03
2022-11-17T01:04:15.864Z,7.70
2022-11-17T01:06:48.677Z,6.10
2022-11-17T01:09:21.366Z,5.43
2022-11-17T01:11:49.781Z,4.40
2022-11-17T01:14:21.574Z,8.27
2022-11-17T01:16:51.958Z,5.70
2022-11-17T01:19:20.377Z,7.93
2022-11-17T01:21:48.070Z,6.03
2022-11-17T01:24:16.690Z,7.05
2022-11-17T01:26:45.563Z,5.75
2022-11-17T01:29:19.332Z,6.22
2022-11-17T01:31:51.434Z,7.25
2022-11-17T01:34:19.065Z,4.65
2022-11-17T01:37:04.997Z,5.38
2022-11-17T01:39:32.522Z,5.82
2022-11-17T01:42:05.276Z,10.38
2022-11-17T01:44:53.459Z,6.50
2022-11-17T01:47:44.791Z,4.80
2022-11-17T01:50:26.885Z,8.88
2022-11-17T01:52:59.944Z,4.60
2022-11-17T01:55:37.193Z,6.30
2022-11-17T01:58:13.854Z,7.88
2022-11-17T02:00:41.538Z,8.65
2022-11-17T02:03:09.268Z,6.15
2022-11-17T02:05:57.359Z,6.47
2022-11-17T02:08:28.102Z,4.88
2022-11-17T02:10:55.760Z,8.43
2022-11-17T02:13:23.720Z,5.28
2022-11-17T02:15:50.917Z,5.78
2022-11-17T02:18:18.805Z,4.95
2022-11-17T02:21:14.004Z,6.97
2022-11-17T02:23:53.952Z,5.90
2022-11-17T02:26:38.214Z,6.93
2022-11-17T02:29:30.739Z,5.78
2022-11-17T02:32:05.647Z,6.03
2022-11-17T02:34:55.423Z,4.88
2022-11-17T02:38:04.573Z,5.80
2022-11-17T02:40:40.331Z,8.52
2022-11-17T02:43:31.995Z,8.52
2022-11-17T02:46:07.553Z,7.28
2022-11-17T02:48:46.648Z,7.03
2022-11-17T02:51:20.583Z,7.75
2022-11-17T02:53:49.926Z,5.95
2022-11-17T02:56:17.059Z,8.13
2022-11-17T02:58:44.708Z,7.38
2022-11-17T03:01:36.483Z,7.97
2022-11-17T03:04:34.061Z,8.63
2022-11-17T03:07:28.558Z,6.55
2022-11-17T03:10:01.846Z,7.95
2022-11-17T03:12:52.028Z,8.05
2022-11-17T03:15:55.688Z,6.43
2022-11-17T03:18:35.759Z,8.07
2022-11-17T03:21:14.184Z,9.02
2022-11-17T03:27:34.312Z,6.53
2022-11-17T03:30:05.836Z,6.75
2022-11-17T03:32:38.927Z,7.25
2022-11-17T03:35:13.042Z,11.63
2022-11-17T03:37:46.444Z,5.75
2022-11-17T03:40:17.662Z,8.68
2022-11-17T03:42:53.014Z,7.55
2022-11-17T03:45:29.203Z,6.18
2022-11-17T03:48:20.442Z,6.88
2022-11-17T03:51:07.598Z,7.30
2022-11-17T03:53:36.431Z,7.90
2022-11-17T03:56:09.943Z,8.27
2022-11-17T03:58:45.250Z,7.35
2022-11-17T04:03:40.427Z,7.63
2022-11-17T04:06:07.854Z,6.97
2022-11-17T04:08:35.013Z,8.68
2022-11-17T04:11:20.913Z,6.40
2022-11-17T04:14:06.767Z,7.70
2022-11-17T04:16:34.344Z,8.73
2022-11-17T04:19:01.859Z,9.15
2022-11-17T04:21:29.258Z,8.70
2022-11-17T04:23:58.838Z,7.38
2022-11-17T04:26:45.038Z,6.05
2022-11-17T04:29:12.337Z,7.10
2022-11-17T04:31:39.555Z,11.38
2022-11-17T04:34:07.025Z,8.63
2022-11-17T04:36:43.631Z,7.15
2022-11-17T04:39:12.843Z,8.45
2022-11-17T04:41:57.633Z,7.88
2022-11-17T04:44:30.547Z,8.88
2022-11-17T04:46:58.571Z,7.85
2022-11-17T04:49:26.448Z,9.27
2022-11-17T04:51:54.447Z,8.13
2022-11-17T04:54:25.128Z,12.63
2022-11-17T04:56:53.771Z,7.93
2022-11-17T04:59:21.731Z,8.50
2022-11-17T05:01:48.946Z,7.30
2022-11-17T05:04:37.198Z,8.25
2022-11-17T05:07:04.754Z,12.05
2022-11-17T05:09:31.976Z,9.10
2022-11-17T05:12:17.839Z,8.73
2022-11-17T05:14:47.723Z,8.60
2022-11-17T05:17:14.970Z,8.35
2022-11-17T05:19:47.482Z,8.25
2022-11-17T05:22:37.160Z,10.68
2022-11-17T05:25:05.373Z,10.48
2022-11-17T05:27:34.280Z,9.68
2022-11-17T05:30:07.276Z,8.80
2022-11-17T05:32:34.760Z,9.07
2022-11-17T05:35:02.228Z,10.65
2022-11-17T05:37:29.354Z,10.32
2022-11-17T05:39:56.541Z,9.02
2022-11-17T05:42:23.966Z,10.18
2022-11-17T05:44:51.926Z,8.50
2022-11-17T05:47:19.019Z,7.50
2022-11-17T05:49:46.637Z,9.82
2022-11-17T05:52:14.022Z,7.43
2022-11-17T05:54:41.246Z,9.30
2022-11-17T05:57:17.233Z,10.65
2022-11-17T05:59:52.964Z,11.20
2022-11-17T06:02:34.673Z,10.43
2022-11-17T06:05:03.127Z,9.25
2022-11-17T06:07:30.529Z,7.53
2022-11-17T06:10:00.590Z,7.82
2022-11-17T06:12:28.121Z,8.95
2022-11-17T06:14:55.309Z,8.93
2022-11-17T06:17:35.499Z,9.52
2022-11-17T06:20:12.723Z,6.30
2022-11-17T06:22:44.066Z,9.93
2022-11-17T06:25:14.554Z,9.20
2022-11-17T06:27:42.401Z,8.75
2022-11-17T06:30:10.088Z,8.57
2022-11-17T06:32:39.318Z,9.85
2022-11-17T06:35:09.058Z,9.82
2022-11-17T06:37:36.489Z,13.68
2022-11-17T06:40:04.419Z,9.15
2022-11-17T06:43:00.641Z,12.10
2022-11-17T06:45:28.065Z,9.82
2022-11-17T06:47:56.183Z,11.63
2022-11-17T06:50:23.511Z,8.93
2022-11-17T06:52:50.806Z,9.75
2022-11-17T06:55:18.859Z,9.60
2022-11-17T06:57:51.837Z,9.35
2022-11-17T07:00:20.842Z,6.97
2022-11-17T07:02:48.140Z,7.32
2022-11-17T07:05:15.325Z,8.85
2022-11-17T07:07:42.714Z,8.13
2022-11-17T07:10:10.371Z,10.00
2022-11-17T07:12:37.496Z,10.13
2022-11-17T07:15:06.309Z,7.90
2022-11-17T07:17:33.839Z,9.45
2022-11-17T07:20:01.190Z,9.93
2022-11-17T07:22:28.446Z,9.45
2022-11-17T07:24:55.661Z,10.43
2022-11-17T07:27:23.073Z,9.02
2022-11-17T07:29:50.129Z,7.82
2022-11-17T07:32:17.461Z,11.23
2022-11-17T07:34:44.581Z,8.30
2022-11-17T07:37:11.874Z,10.50
2022-11-17T07:39:39.267Z,10.20
2022-11-17T07:42:06.622Z,9.13
2022-11-17T07:44:34.506Z,8.38
2022-11-17T07:47:02.141Z,10.48
2022-11-17T07:49:29.883Z,12.68
2022-11-17T07:51:57.386Z,9.45
2022-11-17T07:54:24.872Z,11.90
2022-11-17T07:56:52.131Z,9.57
2022-11-17T07:59:21.517Z,10.60
2022-11-17T08:01:49.009Z,10.93
2022-11-17T08:04:17.342Z,9.90
2022-11-17T08:06:45.555Z,10.55
2022-11-17T08:09:14.470Z,10.57
2022-11-17T08:11:41.580Z,11.15
2022-11-17T08:14:09.124Z,9.45
2022-11-17T08:16:36.235Z,11.50
2022-11-17T08:19:06.352Z,9.30
2022-11-17T08:21:36.582Z,11.57
2022-11-17T08:24:03.845Z,10.73
2022-11-17T08:26:30.927Z,9.23
2022-11-17T08:28:59.151Z,11.52
2022-11-17T08:31:26.330Z,13.57
2022-11-17T08:33:53.578Z,9.80
2022-11-17T08:36:20.618Z,9.98
2022-11-17T08:38:48.703Z,9.52
2022-11-17T08:41:16.028Z,11.90
2022-11-17T08:43:43.164Z,8.68
2022-11-17T08:46:14.539Z,8.38
2022-11-17T08:48:41.987Z,12.00
2022-11-17T08:51:10.055Z,10.43
2022-11-17T08:53:37.438Z,11.23
2022-11-17T08:56:13.095Z,9.18
2022-11-17T08:58:44.953Z,11.10
2022-11-17T09:01:16.063Z,10.88
2022-11-17T09:03:45.333Z,10.43
2022-11-17T09:06:13.082Z,10.82
2022-11-17T09:08:47.779Z,12.90
2022-11-17T09:11:16.857Z,9.32
2022-11-17T09:13:45.949Z,9.98
2022-11-17T09:16:14.078Z,8.95
2022-11-17T09:18:41.653Z,13.38
2022-11-17T09:21:15.527Z,9.40
2022-11-17T09:23:43.041Z,13.10
2022-11-17T09:26:13.111Z,13.77
2022-11-17T09:28:40.595Z,10.15
2022-11-17T09:31:13.184Z,11.82
2022-11-17T09:33:40.779Z,9.00
2022-11-17T09:36:08.694Z,10.70
2022-11-17T09:38:39.667Z,12.48
2022-11-17T09:41:16.114Z,13.93
2022-11-17T09:44:12.879Z,13.65
2022-11-17T09:46:55.053Z,13.63
2022-11-17T09:49:37.523Z,12.73
2022-11-17T09:52:19.027Z,13.27
2022-11-17T09:54:50.231Z,13.60
2022-11-17T09:57:32.636Z,11.70
2022-11-17T10:00:08.349Z,13.45
2022-11-17T10:02:35.517Z,11.45
2022-11-17T10:05:03.066Z,12.27
2022-11-17T10:07:32.373Z,14.07
2022-11-17T10:10:02.224Z,11.65
2022-11-17T10:12:39.239Z,14.25
2022-11-17T10:15:31.018Z,12.35
2022-11-17T10:17:58.309Z,16.10
2022-11-17T10:20:25.939Z,15.38
2022-11-17T10:22:54.784Z,13.43
2022-11-17T10:25:41.126Z,13.65
2022-11-17T10:28:22.552Z,15.40
2022-11-17T10:30:54.940Z,13.05
2022-11-17T10:33:44.647Z,10.32
2022-11-17T10:36:29.073Z,11.23
2022-11-17T10:38:58.802Z,14.32
2022-11-17T10:41:35.888Z,16.13
2022-11-17T10:44:22.022Z,14.35
2022-11-17T10:47:02.778Z,11.60
2022-11-17T10:49:36.019Z,17.92
2022-11-17T10:52:11.634Z,10.30
2022-11-17T10:54:39.224Z,11.98
2022-11-17T10:57:28.484Z,12.60
2022-11-17T10:59:57.866Z,9.40
2022-11-17T11:02:35.002Z,11.48
2022-11-17T11:05:11.834Z,17.38
2022-11-17T11:07:39.646Z,9.75
2022-11-17T11:10:32.796Z,13.65
2022-11-17T11:13:27.723Z,12.80
2022-11-17T11:15:54.928Z,10.75
2022-11-17T11:18:22.338Z,13.27
2022-11-17T11:21:09.551Z,15.32
2022-11-17T11:24:02.575Z,11.82
2022-11-17T11:26:45.853Z,13.05
2022-11-17T11:29:28.509Z,15.45
2022-11-17T11:32:30.661Z,10.60
2022-11-17T11:35:23.788Z,24.10
2022-11-17T11:38:07.219Z,13.55
2022-11-17T11:40:40.120Z,14.45
2022-11-17T11:43:41.127Z,11.73
2022-11-17T11:46:37.034Z,17.80
2022-11-17T11:49:30.853Z,11.57
2022-11-17T11:51:58.216Z,11.82
2022-11-17T11:54:36.254Z,14.18
2022-11-17T11:57:06.496Z,11.85
2022-11-17T11:59:48.373Z,12.70
2022-11-17T12:02:44.481Z,14.43
2022-11-17T12:08:28.613Z,16.40
2022-11-17T12:11:26.713Z,17.10
2022-11-17T12:13:57.074Z,13.88
2022-11-17T12:16:40.268Z,13.23
2022-11-17T12:19:44.778Z,13.93
2022-11-17T12:22:29.920Z,20.60
2022-11-17T12:25:00.343Z,15.10
2022-11-17T12:27:36.649Z,16.95
2022-11-17T12:30:06.861Z,15.10
2022-11-17T12:33:01.518Z,18.02
2022-11-17T12:35:31.096Z,16.23
2022-11-17T12:38:20.240Z,13.60
2022-11-17T12:40:51.770Z,17.40
2022-11-17T12:43:26.585Z,16.88
2022-11-17T12:45:59.624Z,15.07
2022-11-17T12:48:56.466Z,13.82
2022-11-17T12:51:33.567Z,13.43
2022-11-17T12:54:21.185Z,14.38
2022-11-17T12:56:56.782Z,14.98
2022-11-17T12:59:39.121Z,16.83
2022-11-17T13:02:18.320Z,16.05
2022-11-17T13:05:15.020Z,17.73
2022-11-17T13:07:42.355Z,19.15
2022-11-17T13:10:30.559Z,20.30
2022-11-17T13:13:11.215Z,17.48
2022-11-17T13:15:39.062Z,18.58
2022-11-17T13:18:16.563Z,16.27
2022-11-17T13:20:48.992Z,15.18
2022-11-17T13:23:23.692Z,16.33
2022-11-17T13:25:52.153Z,15.88
2022-11-17T13:28:32.258Z,15.38
2022-11-17T13:31:00.944Z,19.80
2022-11-17T13:33:30.472Z,15.18
2022-11-17T13:36:20.068Z,15.73
2022-11-17T13:38:51.984Z,23.95
2022-11-17T13:41:22.075Z,17.50
2022-11-17T13:43:51.377Z,20.15
2022-11-17T13:46:19.180Z,13.38
2022-11-17T13:48:51.540Z,16.27
2022-11-17T13:51:35.364Z,13.02
2022-11-17T13:54:05.416Z,15.80
2022-11-17T13:56:35.100Z,20.67
2022-11-17T13:59:33.977Z,15.52
2022-11-17T14:02:30.793Z,22.77
2022-11-17T14:05:17.887Z,14.75
2022-11-17T14:07:46.085Z,16.25
2022-11-17T14:10:25.027Z,14.55
2022-11-17T14:12:54.666Z,17.10
2022-11-17T14:15:23.707Z,18.48
2022-11-17T14:17:55.104Z,14.50
2022-11-17T14:20:25.078Z,12.02
2022-11-17T14:23:13.896Z,15.93
2022-11-17T14:25:43.649Z,13.85
2022-11-17T14:28:15.953Z,13.32
2022-11-17T14:30:43.943Z,14.70
2022-11-17T14:33:13.741Z,21.95
2022-11-17T14:35:42.104Z,15.38
2022-11-17T14:38:20.332Z,13.90
2022-11-17T14:40:52.638Z,13.10
2022-11-17T14:43:21.244Z,14.23
2022-11-17T14:45:51.649Z,15.05
2022-11-17T14:48:20.378Z,17.65
2022-11-17T14:50:55.846Z,16.13
2022-11-17T14:53:23.052Z,16.42
2022-11-17T14:55:50.048Z,12.45
2022-11-17T14:58:17.582Z,13.57
2022-11-17T15:00:44.694Z,12.85
2022-11-17T15:03:12.076Z,13.00
2022-11-17T15:05:48.791Z,15.35
2022-11-17T15:08:16.161Z,13.52
2022-11-17T15:10:45.725Z,17.70
2022-11-17T15:13:12.915Z,11.50
2022-11-17T15:15:40.801Z,16.58
2022-11-17T15:18:15.413Z,16.55
2022-11-17T15:20:42.910Z,12.75
2022-11-17T15:23:10.378Z,12.02
2022-11-17T15:25:39.469Z,16.33
2022-11-17T15:28:06.765Z,12.85
2022-11-17T15:30:34.089Z,12.98
2022-11-17T15:33:02.185Z,14.63
2022-11-17T15:35:31.090Z,14.77
2022-11-17T15:38:00.799Z,14.65
2022-11-17T15:40:28.007Z,14.07
2022-11-17T15:42:55.194Z,15.02
2022-11-17T15:45:22.420Z,15.15
2022-11-17T15:47:49.994Z,12.57
2022-11-17T15:50:17.569Z,16.77
2022-11-17T15:55:33.911Z,15.05
2022-11-17T15:58:01.151Z,15.57
2022-11-17T16:00:28.270Z,17.48
2022-11-17T16:02:58.634Z,20.55
2022-11-17T16:05:26.706Z,20.30
2022-11-17T16:07:54.103Z,14.40
2022-11-17T16:10:21.599Z,16.48
2022-11-17T16:12:51.490Z,19.08
2022-11-17T16:15:18.856Z,15.00
2022-11-17T16:17:45.969Z,18.80
2022-11-17T16:20:13.260Z,13.60
2022-11-17T16:22:40.575Z,22.55
2022-11-17T16:25:10.493Z,17.17
2022-11-17T16:27:38.128Z,15.23
2022-11-17T16:30:05.809Z,15.30
2022-11-17T16:32:33.036Z,18.13
2022-11-17T16:35:00.199Z,17.48
2022-11-17T16:37:27.650Z,17.50
2022-11-17T16:39:55.523Z,13.43
2022-11-17T16:42:22.772Z,17.33
2022-11-17T16:44:50.004Z,16.05
2022-11-17T16:47:17.374Z,14.43
2022-11-17T16:49:47.856Z,19.00
2022-11-17T16:52:17.870Z,17.98
2022-11-17T16:54:45.247Z,16.60
2022-11-17T16:57:12.357Z,16.00
2022-11-17T16:59:39.792Z,19.02
2022-11-17T17:02:06.929Z,19.10
2022-11-17T17:04:34.226Z,18.60
2022-11-17T17:07:01.558Z,19.23
2022-11-17T17:09:29.327Z,17.00
2022-11-17T17:11:56.907Z,19.63
2022-11-17T17:14:24.053Z,17.48
2022-11-17T17:16:51.519Z,19.60
2022-11-17T17:19:19.230Z,19.48
2022-11-17T17:21:46.992Z,18.67
2022-11-17T17:24:14.355Z,16.75
2022-11-17T17:26:41.951Z,20.02
2022-11-17T17:29:10.757Z,16.35
2022-11-17T17:31:40.396Z,17.13
2022-11-17T17:34:08.871Z,18.58
2022-11-17T17:36:37.750Z,16.08
2022-11-17T17:39:05.592Z,18.70
2022-11-17T17:41:35.211Z,20.45
2022-11-17T17:44:05.151Z,18.23
2022-11-17T17:46:35.705Z,18.77
2022-11-17T17:49:03.628Z,20.83
2022-11-17T17:51:31.508Z,17.67
2022-11-17T17:54:02.202Z,19.50
2022-11-17T17:56:30.944Z,16.27
2022-11-17T17:58:58.247Z,16.10
2022-11-17T18:01:27.904Z,18.08
2022-11-17T18:04:08.131Z,18.50
2022-11-17T18:06:39.705Z,18.38
2022-11-17T18:09:08.844Z,24.27
2022-11-17T18:11:36.474Z,20.73
2022-11-17T18:14:04.328Z,18.20
2022-11-17T18:16:33.881Z,15.02
2022-11-17T18:19:04.946Z,13.90
2022-11-17T18:21:32.547Z,17.95
2022-11-17T18:24:01.570Z,18.65
2022-11-17T18:26:39.628Z,16.88
2022-11-17T18:29:11.740Z,18.83
2022-11-17T18:31:39.527Z,16.17
2022-11-17T18:34:21.620Z,19.23
2022-11-17T18:36:50.172Z,19.38
2022-11-17T18:39:18.138Z,17.33
2022-11-17T18:41:46.089Z,15.75
2022-11-17T18:44:15.202Z,19.67
2022-11-17T18:46:42.373Z,16.02
2022-11-17T18:49:10.032Z,15.82
2022-11-17T18:51:37.287Z,18.42
2022-11-17T18:54:05.592Z,24.00
2022-11-17T18:56:35.722Z,17.63
2022-11-17T18:59:03.651Z,20.67
2022-11-17T19:01:31.784Z,19.15
2022-11-17T19:04:02.977Z,22.40
2022-11-17T19:06:31.096Z,17.88
2022-11-17T19:08:59.868Z,22.08
2022-11-17T19:11:31.829Z,20.55
2022-11-17T19:14:02.638Z,22.98
2022-11-17T19:16:30.174Z,18.40
2022-11-17T19:18:57.842Z,20.70
2022-11-17T19:21:33.804Z,21.30
2022-11-17T19:24:03.784Z,19.98
2022-11-17T19:26:33.791Z,18.75
2022-11-17T19:31:27.111Z,26.88
2022-11-17T19:33:55.144Z,20.17
2022-11-17T19:36:26.666Z,22.25
2022-11-17T19:38:55.524Z,22.45
2022-11-17T19:41:32.045Z,21.08
2022-11-17T19:44:01.248Z,21.08
2022-11-17T19:46:29.589Z,18.85
2022-11-17T19:48:57.648Z,17.92
2022-11-17T19:51:30.603Z,20.02
2022-11-17T19:54:01.488Z,19.60
2022-11-17T19:56:28.754Z,21.67
2022-11-17T19:58:56.168Z,23.55
2022-11-17T20:01:25.868Z,17.77
2022-11-17T20:03:57.298Z,20.92
2022-11-17T20:06:29.671Z,24.30
2022-11-17T20:09:00.279Z,19.65
2022-11-17T20:11:28.708Z,22.58
2022-11-17T20:13:56.262Z,26.45
2022-11-17T20:16:30.642Z,21.17
2022-11-17T20:19:00.035Z,21.85
2022-11-17T20:21:28.825Z,23.52
2022-11-17T20:24:03.149Z,22.05
2022-11-17T20:26:32.682Z,23.53
2022-11-17T20:29:00.855Z,21.27
2022-11-17T20:31:32.704Z,22.25
2022-11-17T20:34:01.333Z,22.13
2022-11-17T20:36:30.731Z,25.42
2022-11-17T20:39:03.554Z,23.92
2022-11-17T20:41:31.234Z,20.25
2022-11-17T20:44:00.096Z,25.27
2022-11-17T20:46:28.161Z,21.50
2022-11-17T20:48:55.539Z,25.02
2022-11-17T20:51:24.967Z,20.08
2022-11-17T20:53:52.366Z,24.77
2022-11-17T20:56:20.291Z,26.65
2022-11-17T20:58:47.894Z,21.92
2022-11-17T21:01:18.007Z,21.77
2022-11-17T21:03:45.814Z,24.10
2022-11-17T21:06:14.324Z,21.70
2022-11-17T21:08:43.612Z,24.58
2022-11-17T21:11:33.299Z,25.08
2022-11-17T21:14:00.669Z,21.45
2022-11-17T21:16:28.153Z,24.38
2022-11-17T21:18:55.328Z,24.27
2022-11-17T21:21:22.393Z,28.92
2022-11-17T21:23:53.929Z,23.35
2022-11-17T21:26:21.427Z,24.45
2022-11-17T21:28:49.383Z,30.80
2022-11-17T21:31:22.918Z,25.08
2022-11-17T21:33:55.251Z,25.02
2022-11-17T21:36:23.992Z,32.55
2022-11-17T21:38:52.347Z,26.67
2022-11-17T21:41:22.420Z,27.20
2022-11-17T21:43:51.724Z,31.83
2022-11-17T21:46:22.209Z,26.92
2022-11-17T21:48:50.825Z,31.50
2022-11-17T21:51:27.078Z,29.38
2022-11-17T21:53:58.866Z,34.97
2022-11-17T21:56:27.389Z,30.70
2022-11-17T21:59:03.561Z,30.63
2022-11-17T22:01:32.470Z,29.10
2022-11-17T22:04:00.675Z,31.15
2022-11-17T22:06:28.144Z,25.83
2022-11-17T22:08:56.551Z,26.83
2022-11-17T22:11:36.558Z,27.23
2022-11-17T22:14:15.295Z,26.70
2022-11-17T22:16:44.752Z,31.13
2022-11-17T22:19:14.003Z,27.67
2022-11-17T22:21:42.208Z,28.08
2022-11-17T22:24:11.063Z,23.67
2022-11-17T22:26:41.430Z,52.90
2022-11-17T22:29:15.367Z,32.83
2022-11-17T22:31:44.573Z,27.05
2022-11-17T22:34:13.129Z,29.00
2022-11-17T22:36:40.685Z,32.13
2022-11-17T22:39:09.615Z,32.85
2022-11-17T22:41:36.934Z,26.65
2022-11-17T22:44:04.477Z,26.60
2022-11-17T22:46:31.795Z,32.40
2022-11-17T22:48:59.363Z,30.35
2022-11-17T22:51:45.026Z,28.40
2022-11-17T22:56:39.537Z,30.98
2022-11-17T22:59:07.005Z,31.30
2022-11-17T23:01:34.404Z,32.65
2022-11-17T23:04:01.545Z,33.75
2022-11-17T23:06:28.894Z,34.78
2022-11-17T23:08:58.467Z,28.70
2022-11-17T23:11:42.124Z,37.75
2022-11-17T23:14:14.455Z,32.35
2022-11-17T23:16:42.220Z,29.50
2022-11-17T23:19:13.332Z,30.38
2022-11-17T23:21:41.450Z,32.08
2022-11-17T23:24:13.133Z,29.55
2022-11-17T23:26:40.818Z,32.33
2022-11-17T23:29:09.862Z,34.17
2022-11-17T23:31:37.193Z,31.83
2022-11-17T23:34:04.622Z,27.33
2022-11-17T23:36:31.855Z,26.80
2022-11-17T23:38:59.052Z,29.67
2022-11-17T23:41:26.370Z,32.88
2022-11-17T23:43:54.711Z,32.75
2022-11-17T23:46:26.057Z,29.15
2022-11-17T23:48:54.574Z,28.15
2022-11-17T23:51:24.009Z,37.53
2022-11-17T23:53:51.304Z,31.48
2022-11-17T23:56:20.841Z,30.63
2022-11-17T23:58:48.939Z,28.08
